Time;durP1;ratioP1;P1;durP2;ratioP2;P2;SDS_P1;SDS_P2;PMS_P1;PMS_P2;Temp;Humidity;BMP_temperature;BMP_pressure;BME280_temperature;BME280_humidity;BME280_pressure;Samples;Min_cycle;Max_cycle;Signal;HPM_P1;HPM_P2
2022/03/25 00:01:14;;;;;;;;;;;;;;;;;;5075898;28;19925;-77
2022/03/25 00:03:40;;;;;;;;;;;;;;;;;;5076116;28;20334;-78
2022/03/25 00:06:05;;;;;;;;;;;;;;;;;;5076088;28;19917;-78
2022/03/25 00:08:31;;;;;;;;;;;;;;;;;;5058018;28;19995;-77
2022/03/25 00:10:56;;;;;;;;;;;;;;;;;;5075936;28;19916;-77
2022/03/25 00:13:22;;;;;;;;;;;;;;;;;;5075874;28;19931;-78
2022/03/25 00:15:47;;;;;;;;;;;;;;;;;;5075894;28;19921;-77
2022/03/25 00:18:13;;;;;;;;;;;;;;;;;;5075785;28;19916;-77
2022/03/25 00:20:38;;;;;;;;;;;;;;;;;;5075798;28;19919;-78
2022/03/25 00:23:04;;;;;;;;;;;;;;;;;;5075792;28;20442;-78
2022/03/25 00:25:29;;;;;;;;;;;;;;;;;;5064829;28;19963;-79
2022/03/25 00:27:55;;;;;;;;;;;;;;;;;;5066059;28;19966;-78
2022/03/25 00:30:20;;;;;;;;;;;;;;;;;;5060386;28;20280;-78
2022/03/25 00:32:46;;;;;;;;;;;;;;;;;;5045184;28;19965;-77
2022/03/25 00:35:11;;;;;;;;;;;;;;;;;;5066164;28;20029;-77
2022/03/25 00:37:37;;;;;;;;;;;;;;;;;;5060480;28;20283;-79
2022/03/25 00:40:03;;;;;;;;;;;;;;;;;;5055351;28;20531;-77
2022/03/25 00:42:30;;;;;;;;;;;;;;;;;;5055289;28;19956;-77
2022/03/25 00:44:55;;;;;;;;;;;;;;;;;;5065347;28;19959;-78
2022/03/25 00:47:22;;;;;;;;;;;;;;;;;;5075126;28;20033;-78
2022/03/25 00:49:48;;;;;;;;;;;;;;;;;;5074558;28;19951;-77
2022/03/25 00:52:13;;;;;;;;;;;;;;;;;;5075108;28;19997;-78
2022/03/25 00:54:39;;;;;;;;;;;;;;;;;;5075100;28;19970;-77
2022/03/25 00:57:04;;;;;;;;;;;;;;;;;;5075136;28;19913;-77
2022/03/25 00:59:30;;;;;;;;;;;;;;;;;;5063514;28;19923;-78
2022/03/25 01:01:56;;;;;;;;;;;;;;;;;;5058003;28;19921;-79
2022/03/25 01:04:22;;;;;;;;;;;;;;;;;;5054725;28;20438;-78
2022/03/25 01:06:47;;;;;;;;;;;;;;;;;;5054527;28;19921;-77
2022/03/25 01:09:13;;;;;;;;;;;;;;;;;;5054881;28;19920;-78
2022/03/25 01:11:39;;;;;;;;;;;;;;;;;;5070079;28;19999;-78
2022/03/25 01:14:05;;;;;;;;;;;;;;;;;;5054726;28;19967;-78
2022/03/25 01:16:30;;;;;;;;;;;;;;;;;;5054773;28;19996;-79
2022/03/25 01:18:55;;;;;;;;;;;;;;;;;;5068051;28;19916;-79
2022/03/25 01:21:21;;;;;;;;;;;;;;;;;;5054640;28;19920;-79
2022/03/25 01:23:48;;;;;;;;;;;;;;;;;;5054542;28;19913;-78
2022/03/25 01:26:13;;;;;;;;;;;;;;;;;;5054445;28;20066;-77
2022/03/25 01:28:39;;;;;;;;;;;;;;;;;;5057247;28;20007;-76
2022/03/25 01:31:06;;;;;;;;;;;;;;;;;;5074344;28;19971;-77
2022/03/25 01:33:31;;;;;;;;;;;;;;;;;;5074468;28;19942;-77
2022/03/25 01:35:57;;;;;;;;;;;;;;;;;;5056325;28;19939;-78
2022/03/25 01:38:24;;;;;;;;;;;;;;;;;;5074159;28;19994;-78
2022/03/25 01:40:49;;;;;;;;;;;;;;;;;;5074282;28;19922;-78
2022/03/25 01:43:15;;;;;;;;;;;;;;;;;;5071719;28;19924;-78
2022/03/25 01:45:40;;;;;;;;;;;;;;;;;;5036318;28;20011;-77
2022/03/25 01:48:10;;;;;;;;;;;;;;;;;;5053944;28;19921;-78
2022/03/25 01:50:36;;;;;;;;;;;;;;;;;;5053783;28;19920;-78
2022/03/25 01:53:03;;;;;;;;;;;;;;;;;;5069322;28;20105;-77
2022/03/25 01:55:35;;;;;;;;;;;;;;;;;;5053903;28;19924;-77
2022/03/25 01:58:01;;;;;;;;;;;;;;;;;;5053874;28;19917;-78
2022/03/25 02:00:30;;;;;;;;;;;;;;;;;;5052243;28;20012;-77
2022/03/25 02:02:55;;;;;;;;;;;;;;;;;;5052835;28;19921;-77
2022/03/25 02:05:21;;;;;;;;;;;;;;;;;;5052375;28;19985;-77
2022/03/25 02:07:46;;;;;;;;;;;;;;;;;;5054086;28;19964;-78
2022/03/25 02:10:12;;;;;;;;;;;;;;;;;;5054140;28;19921;-77
2022/03/25 02:12:38;;;;;;;;;;;;;;;;;;5067824;28;20011;-77
2022/03/25 02:15:05;;;;;;;;;;;;;;;;;;5075205;28;19923;-77
2022/03/25 02:17:30;;;;;;;;;;;;;;;;;;5084154;28;19917;-77
2022/03/25 02:19:56;;;;;;;;;;;;;;;;;;5075956;28;19924;-80
2022/03/25 02:22:22;;;;;;;;;;;;;;;;;;5074374;28;19978;-77
2022/03/25 02:24:49;;;;;;;;;;;;;;;;;;5074103;28;19921;-78
2022/03/25 02:27:16;;;;;;;;;;;;;;;;;;5062458;28;19917;-78
2022/03/25 02:29:42;;;;;;;;;;;;;;;;;;5053546;28;20027;-80
2022/03/25 02:32:07;;;;;;;;;;;;;;;;;;5053298;28;20003;-79
2022/03/25 02:34:33;;;;;;;;;;;;;;;;;;5053422;28;19916;-79
2022/03/25 02:37:00;;;;;;;;;;;;;;;;;;5053310;28;20396;-80
2022/03/25 02:39:27;;;;;;;;;;;;;;;;;;5053265;28;20399;-80
2022/03/25 02:41:53;;;;;;;;;;;;;;;;;;5053195;28;19924;-77
2022/03/25 02:44:18;;;;;;;;;;;;;;;;;;5053195;28;19917;-79
2022/03/25 02:46:44;;;;;;;;;;;;;;;;;;5053203;28;19927;-78
2022/03/25 02:49:11;;;;;;;;;;;;;;;;;;5053272;28;20376;-78
2022/03/25 02:51:36;;;;;;;;;;;;;;;;;;5053158;28;19970;-78
2022/03/25 02:54:03;;;;;;;;;;;;;;;;;;5053141;28;20300;-77
2022/03/25 02:56:28;;;;;;;;;;;;;;;;;;5053185;28;19963;-77
2022/03/25 02:58:53;;;;;;;;;;;;;;;;;;5035324;28;19956;-78
2022/03/25 03:01:19;;;;;;;;;;;;;;;;;;5052869;28;19927;-78
2022/03/25 03:03:45;;;;;;;;;;;;;;;;;;5053020;28;19917;-78
2022/03/25 03:06:10;;;;;;;;;;;;;;;;;;5053000;28;19924;-78
2022/03/25 03:08:36;;;;;;;;;;;;;;;;;;5052963;28;19982;-77
2022/03/25 03:11:02;;;;;;;;;;;;;;;;;;5053020;28;20324;-78
2022/03/25 03:13:27;;;;;;;;;;;;;;;;;;5057076;28;19924;-78
2022/03/25 03:15:53;;;;;;;;;;;;;;;;;;5056974;28;20277;-76
2022/03/25 03:18:20;;;;;;;;;;;;;;;;;;5056906;28;20395;-78
2022/03/25 03:20:45;;;;;;;;;;;;;;;;;;5056888;28;20303;-79
2022/03/25 03:23:11;;;;;;;;;;;;;;;;;;5081800;28;19916;-78
2022/03/25 03:25:36;;;;;;;;;;;;;;;;;;5076858;28;19916;-78
2022/03/25 03:28:02;;;;;;;;;;;;;;;;;;5076723;28;19924;-77
2022/03/25 03:30:28;;;;;;;;;;;;;;;;;;5076671;28;19973;-78
2022/03/25 03:32:57;;;;;;;;;;;;;;;;;;5076691;28;19916;-78
2022/03/25 03:35:26;;;;;;;;;;;;;;;;;;5076644;28;19920;-78
2022/03/25 03:37:53;;;;;;;;;;;;;;;;;;5076545;28;20335;-78
2022/03/25 03:40:18;;;;;;;;;;;;;;;;;;5076548;28;20395;-77
2022/03/25 03:42:44;;;;;;;;;;;;;;;;;;5076470;28;19920;-78
2022/03/25 03:45:10;;;;;;;;;;;;;;;;;;5076408;28;19913;-77
2022/03/25 03:47:36;;;;;;;;;;;;;;;;;;5076338;28;19923;-79
2022/03/25 03:50:03;;;;;;;;;;;;;;;;;;5076382;28;19920;-77
2022/03/25 03:52:29;;;;;;;;;;;;;;;;;;5076270;28;19924;-78
2022/03/25 03:54:54;;;;;;;;;;;;;;;;;;5076364;28;19920;-78
2022/03/25 03:57:19;;;;;;;;;;;;;;;;;;5076251;28;19924;-78
2022/03/25 03:59:45;;;;;;;;;;;;;;;;;;5076046;28;19967;-78
2022/03/25 04:02:10;;;;;;;;;;;;;;;;;;5075829;28;19920;-78
2022/03/25 04:04:36;;;;;;;;;;;;;;;;;;5076059;28;19969;-79
2022/03/25 04:07:01;;;;;;;;;;;;;;;;;;5075978;28;20026;-78
2022/03/25 04:09:27;;;;;;;;;;;;;;;;;;5075720;28;20015;-77
2022/03/25 04:11:53;;;;;;;;;;;;;;;;;;5075496;28;20079;-77
2022/03/25 04:14:19;;;;;;;;;;;;;;;;;;5075958;28;19917;-76
2022/03/25 04:16:45;;;;;;;;;;;;;;;;;;5075896;28;19916;-78
2022/03/25 04:19:10;;;;;;;;;;;;;;;;;;5075987;28;20390;-77
2022/03/25 04:21:35;;;;;;;;;;;;;;;;;;5075832;28;19967;-78
2022/03/25 04:24:01;;;;;;;;;;;;;;;;;;5074650;28;19926;-77
2022/03/25 04:26:26;;;;;;;;;;;;;;;;;;5075615;28;19964;-78
2022/03/25 04:28:52;;;;;;;;;;;;;;;;;;5057602;28;19921;-78
2022/03/25 04:31:17;;;;;;;;;;;;;;;;;;5059313;28;20265;-78
2022/03/25 04:33:43;;;;;;;;;;;;;;;;;;5065689;28;20011;-77
2022/03/25 04:36:09;;;;;;;;;;;;;;;;;;5070825;28;19924;-77
2022/03/25 04:38:34;;;;;;;;;;;;;;;;;;5074746;28;19924;-77
2022/03/25 04:41:00;;;;;;;;;;;;;;;;;;5075481;28;19917;-76
2022/03/25 04:43:25;;;;;;;;;;;;;;;;;;5075492;28;20368;-77
2022/03/25 04:45:50;;;;;;;;;;;;;;;;;;5075301;28;19920;-77
2022/03/25 04:48:16;;;;;;;;;;;;;;;;;;5075206;28;20321;-77
2022/03/25 04:50:43;;;;;;;;;;;;;;;;;;5066433;28;20015;-76
2022/03/25 04:53:09;;;;;;;;;;;;;;;;;;5065876;28;20046;-77
2022/03/25 04:55:34;;;;;;;;;;;;;;;;;;5061381;28;20002;-77
2022/03/25 04:58:00;;;;;;;;;;;;;;;;;;5055032;28;20390;-78
2022/03/25 05:00:26;;;;;;;;;;;;;;;;;;5054817;28;19928;-77
2022/03/25 05:02:51;;;;;;;;;;;;;;;;;;5065958;28;20280;-76
2022/03/25 05:05:17;;;;;;;;;;;;;;;;;;5057072;28;19919;-78
2022/03/25 05:07:46;;;;;;;;;;;;;;;;;;5058053;28;19943;-77
2022/03/25 05:10:13;;;;;;;;;;;;;;;;;;5054779;28;19921;-77
2022/03/25 05:12:42;;;;;;;;;;;;;;;;;;5070147;28;20011;-77
2022/03/25 05:15:08;;;;;;;;;;;;;;;;;;5054750;28;20388;-78
2022/03/25 05:17:34;;;;;;;;;;;;;;;;;;5064055;28;19955;-78
2022/03/25 05:20:03;;;;;;;;;;;;;;;;;;5056674;28;19920;-77
2022/03/25 05:22:29;;;;;;;;;;;;;;;;;;5056607;28;20387;-77
2022/03/25 05:24:54;;;;;;;;;;;;;;;;;;5074694;28;19920;-78
2022/03/25 05:27:19;;;;;;;;;;;;;;;;;;5073386;28;19943;-78
2022/03/25 05:29:45;;;;;;;;;;;;;;;;;;5073122;28;20292;-78
2022/03/25 05:32:11;;;;;;;;;;;;;;;;;;5073222;28;19921;-78
2022/03/25 05:34:36;;;;;;;;;;;;;;;;;;5074108;28;19924;-77
2022/03/25 05:37:02;;;;;;;;;;;;;;;;;;5074211;28;19921;-78
2022/03/25 05:39:27;;;;;;;;;;;;;;;;;;5074167;28;20390;-77
2022/03/25 05:41:53;;;;;;;;;;;;;;;;;;5074144;28;19916;-77
2022/03/25 05:44:18;;;;;;;;;;;;;;;;;;5074125;28;19917;-76
2022/03/25 05:46:44;;;;;;;;;;;;;;;;;;5073993;28;19956;-77
2022/03/25 05:49:09;;;;;;;;;;;;;;;;;;5073945;28;20005;-77
2022/03/25 05:51:37;;;;;;;;;;;;;;;;;;5073176;28;20219;-77
2022/03/25 05:54:02;;;;;;;;;;;;;;;;;;5073907;28;19920;-76
2022/03/25 05:56:28;;;;;;;;;;;;;;;;;;5073741;28;19916;-78
2022/03/25 05:58:53;;;;;;;;;;;;;;;;;;5073848;28;19923;-77
2022/03/25 06:01:19;;;;;;;;;;;;;;;;;;5073570;28;20387;-76
2022/03/25 06:03:45;;;;;;;;;;;;;;;;;;5073761;28;20323;-77
2022/03/25 06:06:10;;;;;;;;;;;;;;;;;;5055873;28;19923;-77
2022/03/25 06:08:36;;;;;;;;;;;;;;;;;;5073580;28;20360;-76
2022/03/25 06:11:01;;;;;;;;;;;;;;;;;;5073584;28;20343;-78
2022/03/25 06:13:27;;;;;;;;;;;;;;;;;;5073553;28;19948;-78
2022/03/25 06:15:53;;;;;;;;;;;;;;;;;;5055688;28;19920;-78
2022/03/25 06:18:20;;;;;;;;;;;;;;;;;;5056200;28;19947;-78
2022/03/25 06:20:45;;;;;;;;;;;;;;;;;;5073998;28;19916;-79
2022/03/25 06:23:11;;;;;;;;;;;;;;;;;;5073752;28;20369;-77
2022/03/25 06:25:36;;;;;;;;;;;;;;;;;;5073980;28;20395;-78
2022/03/25 06:28:04;;;;;;;;;;;;;;;;;;5071837;28;19920;-79
2022/03/25 06:30:34;;;;;;;;;;;;;;;;;;5092429;28;19939;-78
2022/03/25 06:33:00;;;;;;;;;;;;;;;;;;5087377;28;20443;-80
2022/03/25 06:35:26;;;;;;;;;;;;;;;;;;5074072;28;19956;-79
2022/03/25 06:37:55;;;;;;;;;;;;;;;;;;5073832;28;19957;-80
2022/03/25 06:40:21;;;;;;;;;;;;;;;;;;5073505;28;19917;-79
2022/03/25 06:42:47;;;;;;;;;;;;;;;;;;5073459;28;20360;-77
2022/03/25 06:45:13;;;;;;;;;;;;;;;;;;5073193;28;19928;-78
2022/03/25 06:47:38;;;;;;;;;;;;;;;;;;5072609;28;19918;-79
2022/03/25 06:50:05;;;;;;;;;;;;;;;;;;5073207;28;20007;-79
2022/03/25 06:52:30;;;;;;;;;;;;;;;;;;5073136;28;19966;-79
2022/03/25 06:54:56;;;;;;;;;;;;;;;;;;5073188;28;20311;-79
2022/03/25 06:57:22;;;;;;;;;;;;;;;;;;5073064;28;19943;-78
2022/03/25 06:59:47;;;;;;;;;;;;;;;;;;5072816;28;19938;-79
2022/03/25 07:02:15;;;;;;;;;;;;;;;;;;5073191;28;19916;-79
2022/03/25 07:04:41;;;;;;;;;;;;;;;;;;5055116;28;19923;-78
2022/03/25 07:07:07;;;;;;;;;;;;;;;;;;5072973;28;20363;-78
2022/03/25 07:09:33;;;;;;;;;;;;;;;;;;5073080;28;19925;-79
2022/03/25 07:11:59;;;;;;;;;;;;;;;;;;5073019;28;19917;-79
2022/03/25 07:14:24;;;;;;;;;;;;;;;;;;5072945;28;19958;-80
2022/03/25 07:16:50;;;;;;;;;;;;;;;;;;5072867;28;19916;-79
2022/03/25 07:19:15;;;;;;;;;;;;;;;;;;5072887;28;20010;-79
2022/03/25 07:21:41;;;;;;;;;;;;;;;;;;5072913;28;19917;-80
2022/03/25 07:24:06;;;;;;;;;;;;;;;;;;5072950;28;19923;-80
2022/03/25 07:26:32;;;;;;;;;;;;;;;;;;5054865;28;20067;-80
2022/03/25 07:28:58;;;;;;;;;;;;;;;;;;5072699;28;19967;-79
2022/03/25 07:31:28;;;;;;;;;;;;;;;;;;5072846;28;19928;-79
2022/03/25 07:33:56;;;;;;;;;;;;;;;;;;5072987;28;19923;-80
2022/03/25 07:36:22;;;;;;;;;;;;;;;;;;5072727;28;19920;-78
2022/03/25 07:38:47;;;;;;;;;;;;;;;;;;5072804;28;19967;-79
2022/03/25 07:41:13;;;;;;;;;;;;;;;;;;5072317;28;19975;-80
2022/03/25 07:43:39;;;;;;;;;;;;;;;;;;5072664;28;19920;-79
2022/03/25 07:46:05;;;;;;;;;;;;;;;;;;5072609;28;19927;-79
2022/03/25 07:48:31;;;;;;;;;;;;;;;;;;5072602;28;19917;-81
2022/03/25 07:50:56;;;;;;;;;;;;;;;;;;5072319;28;20006;-82
2022/03/25 07:53:22;;;;;;;;;;;;;;;;;;5072628;28;19921;-79
2022/03/25 07:55:51;;;;;;;;;;;;;;;;;;5072584;28;19917;-79
2022/03/25 07:58:19;;;;;;;;;;;;;;;;;;5074406;28;19948;-81
2022/03/25 08:00:45;;;;;;;;;;;;;;;;;;5075990;28;19920;-79
2022/03/25 08:03:11;;;;;;;;;;;;;;;;;;5058139;28;19920;-80
2022/03/25 08:05:38;;;;;;;;;;;;;;;;;;5076013;28;20288;-79
2022/03/25 08:08:04;;;;;;;;;;;;;;;;;;5076001;28;19921;-76
2022/03/25 08:10:30;;;;;;;;;;;;;;;;;;5075964;28;19920;-78
2022/03/25 08:12:56;;;;;;;;;;;;;;;;;;5075955;28;20399;-79
2022/03/25 08:15:23;;;;;;;;;;;;;;;;;;5075801;28;19972;-78
2022/03/25 08:17:52;;;;;;;;;;;;;;;;;;5075757;28;19920;-79
2022/03/25 08:20:24;;;;;;;;;;;;;;;;;;5075398;28;20411;-77
2022/03/25 08:22:50;;;;;;;;;;;;;;;;;;5074447;28;19920;-78
2022/03/25 08:28:01;;;;;;;;;;;;;;;;;;5075273;28;19923;-81
2022/03/25 08:30:31;;;;;;;;;;;;;;;;;;5075595;28;19924;-78
2022/03/25 08:32:57;;;;;;;;;;;;;;;;;;5057540;28;19912;-78
2022/03/25 08:35:27;;;;;;;;;;;;;;;;;;5075192;28;19936;-78
2022/03/25 08:37:53;;;;;;;;;;;;;;;;;;5074074;28;20025;-78
2022/03/25 08:40:19;;;;;;;;;;;;;;;;;;5056769;28;19917;-77
2022/03/25 08:42:44;;;;;;;;;;;;;;;;;;5075393;28;20015;-79
2022/03/25 08:45:13;;;;;;;;;;;;;;;;;;5075279;28;19964;-78
2022/03/25 08:47:39;;;;;;;;;;;;;;;;;;5075223;28;19962;-79
2022/03/25 08:50:04;;;;;;;;;;;;;;;;;;5075199;28;19952;-79
2022/03/25 08:52:30;;;;;;;;;;;;;;;;;;5075222;28;20007;-79
2022/03/25 08:54:55;;;;;;;;;;;;;;;;;;5057225;28;19923;-78
2022/03/25 08:57:21;;;;;;;;;;;;;;;;;;5075027;28;19927;-76
2022/03/25 08:59:48;;;;;;;;;;;;;;;;;;5074882;28;19917;-78
2022/03/25 09:02:14;;;;;;;;;;;;;;;;;;5074978;28;19920;-79
2022/03/25 09:04:39;;;;;;;;;;;;;;;;;;5073961;28;19924;-78
2022/03/25 09:07:05;;;;;;;;;;;;;;;;;;5073566;28;20003;-80
2022/03/25 09:09:31;;;;;;;;;;;;;;;;;;5073037;28;20007;-78
2022/03/25 09:11:56;;;;;;;;;;;;;;;;;;5073467;28;20047;-77
2022/03/25 09:14:22;;;;;;;;;;;;;;;;;;5073521;28;19960;-77
2022/03/25 09:16:47;;;;;;;;;;;;;;;;;;5073323;28;20284;-78
2022/03/25 09:19:14;;;;;;;;;;;;;;;;;;5073556;28;19917;-78
2022/03/25 09:21:40;;;;;;;;;;;;;;;;;;5073359;28;20000;-77
2022/03/25 09:24:05;;;;;;;;;;;;;;;;;;5073546;28;20027;-77
2022/03/25 09:26:31;;;;;;;;;;;;;;;;;;5074665;28;19968;-77
2022/03/25 09:28:56;;;;;;;;;;;;;;;;;;5057163;28;19924;-79
2022/03/25 09:31:22;;;;;;;;;;;;;;;;;;5069235;28;19971;-84
2022/03/25 09:33:47;;;;;;;;;;;;;;;;;;5051548;28;19923;-82
2022/03/25 09:36:13;;;;;;;;;;;;;;;;;;5074270;28;19920;-81
2022/03/25 09:38:39;;;;;;;;;;;;;;;;;;5078160;28;20337;-80
2022/03/25 09:41:06;;;;;;;;;;;;;;;;;;5074316;28;19920;-82
2022/03/25 09:43:32;;;;;;;;;;;;;;;;;;5074137;28;20387;-81
2022/03/25 09:45:57;;;;;;;;;;;;;;;;;;5074082;28;19912;-81
2022/03/25 09:48:23;;;;;;;;;;;;;;;;;;5057114;28;19917;-82
2022/03/25 09:50:48;;;;;;;;;;;;;;;;;;5074447;28;19917;-81
2022/03/25 09:53:14;;;;;;;;;;;;;;;;;;5057858;28;20396;-82
2022/03/25 09:55:44;;;;;;;;;;;;;;;;;;5035965;28;20377;-81
2022/03/25 09:58:12;;;;;;;;;;;;;;;;;;5035961;28;19917;-81
2022/03/25 10:00:37;;;;;;;;;;;;;;;;;;5053773;28;19925;-82
2022/03/25 10:03:03;;;;;;;;;;;;;;;;;;5053750;28;19947;-81
2022/03/25 10:05:28;;;;;;;;;;;;;;;;;;5053699;28;19921;-81
2022/03/25 10:07:57;;;;;;;;;;;;;;;;;;5053603;28;20292;-80
2022/03/25 10:10:26;;;;;;;;;;;;;;;;;;5053881;28;19916;-82
2022/03/25 10:13:02;;;;;;;;;;;;;;;;;;5039633;28;20624;-75
2022/03/25 10:15:29;;;;;;;;;;;;;;;;;;5072001;28;19920;-78
2022/03/25 10:17:56;;;;;;;;;;;;;;;;;;5072362;28;20368;-79
2022/03/25 10:20:41;;;;;;;;;;;;;;;;;;5073121;28;19920;-80
2022/03/25 10:23:09;;;;;;;;;;;;;;;;;;5072709;28;19923;-78
2022/03/25 10:25:40;;;;;;;;;;;;;;;;;;5055516;28;20011;-78
2022/03/25 10:28:22;;;;;;;;;;;;;;;;;;5073351;28;19922;-78
2022/03/25 10:30:50;;;;;;;;;;;;;;;;;;5073318;28;20372;-78
2022/03/25 10:33:29;;;;;;;;;;;;;;;;;;5073284;28;19917;-78
2022/03/25 10:36:08;;;;;;;;;;;;;;;;;;5073282;28;19920;-78
2022/03/25 10:38:48;;;;;;;;;;;;;;;;;;5073308;28;20364;-77
2022/03/25 10:41:18;;;;;;;;;;;;;;;;;;5055340;28;20014;-78
2022/03/25 10:43:52;;;;;;;;;;;;;;;;;;5068960;28;19963;-79
2022/03/25 10:46:31;;;;;;;;;;;;;;;;;;5067007;28;19923;-79
2022/03/25 10:48:58;;;;;;;;;;;;;;;;;;5071144;28;20433;-78
2022/03/25 10:51:24;;;;;;;;;;;;;;;;;;5054883;28;19947;-79
2022/03/25 10:53:55;;;;;;;;;;;;;;;;;;5039227;28;19921;-79
2022/03/25 10:56:21;;;;;;;;;;;;;;;;;;5064422;28;19928;-78
2022/03/25 10:58:53;;;;;;;;;;;;;;;;;;5062606;28;19901;-78
2022/03/25 11:01:19;;;;;;;;;;;;;;;;;;5067996;28;19921;-80
2022/03/25 11:03:44;;;;;;;;;;;;;;;;;;5053314;28;19917;-79
2022/03/25 11:06:14;;;;;;;;;;;;;;;;;;5053271;28;19913;-77
2022/03/25 11:08:39;;;;;;;;;;;;;;;;;;5038715;28;19974;-79
2022/03/25 11:11:05;;;;;;;;;;;;;;;;;;5051360;28;19916;-78
2022/03/25 11:13:31;;;;;;;;;;;;;;;;;;5051428;28;19916;-79
2022/03/25 11:15:58;;;;;;;;;;;;;;;;;;5052935;28;20288;-78
2022/03/25 11:18:27;;;;;;;;;;;;;;;;;;5052945;28;20003;-78
2022/03/25 11:20:53;;;;;;;;;;;;;;;;;;5052841;28;20554;-78
2022/03/25 11:23:24;;;;;;;;;;;;;;;;;;5052853;28;19924;-78
2022/03/25 11:25:51;;;;;;;;;;;;;;;;;;5052900;28;20273;-78
2022/03/25 11:28:19;;;;;;;;;;;;;;;;;;5052766;28;19917;-78
2022/03/25 11:30:45;;;;;;;;;;;;;;;;;;5052718;28;19917;-79
2022/03/25 11:33:11;;;;;;;;;;;;;;;;;;5054623;28;20372;-78
2022/03/25 11:35:41;;;;;;;;;;;;;;;;;;5056701;28;19997;-80
2022/03/25 11:38:12;;;;;;;;;;;;;;;;;;5056524;28;20654;-84
2022/03/25 11:40:39;;;;;;;;;;;;;;;;;;5056504;28;19924;-81
2022/03/25 11:43:28;;;;;;;;;;;;;;;;;;5056448;28;20010;-81
2022/03/25 11:45:59;;;;;;;;;;;;;;;;;;5056490;28;19975;-80
2022/03/25 11:48:24;;;;;;;;;;;;;;;;;;5056380;28;19921;-80
2022/03/25 11:50:51;;;;;;;;;;;;;;;;;;5056316;28;20373;-78
2022/03/25 11:53:16;;;;;;;;;;;;;;;;;;5038283;28;20305;-78
2022/03/25 11:55:55;;;;;;;;;;;;;;;;;;5038628;28;19923;-80
2022/03/25 11:58:21;;;;;;;;;;;;;;;;;;5056187;28;20027;-79
2022/03/25 12:00:48;;;;;;;;;;;;;;;;;;5055931;28;20293;-77
2022/03/25 12:03:14;;;;;;;;;;;;;;;;;;5056121;28;19921;-79
2022/03/25 12:05:55;;;;;;;;;;;;;;;;;;5039617;28;20017;-79
2022/03/25 12:08:22;;;;;;;;;;;;;;;;;;5057546;28;19920;-78
2022/03/25 12:10:49;;;;;;;;;;;;;;;;;;5071645;28;19935;-81
2022/03/25 12:13:15;;;;;;;;;;;;;;;;;;5063772;28;19913;-79
2022/03/25 12:15:41;;;;;;;;;;;;;;;;;;5059817;28;19925;-80
2022/03/25 12:18:25;;;;;;;;;;;;;;;;;;5074409;28;20004;-79
2022/03/25 12:20:51;;;;;;;;;;;;;;;;;;5073996;28;19916;-81
2022/03/25 12:23:16;;;;;;;;;;;;;;;;;;5074108;28;19927;-80
2022/03/25 12:25:43;;;;;;;;;;;;;;;;;;5056776;28;19916;-80
2022/03/25 12:28:09;;;;;;;;;;;;;;;;;;5074791;28;19921;-80
2022/03/25 12:30:38;;;;;;;;;;;;;;;;;;5074637;28;19924;-78
2022/03/25 12:33:10;;;;;;;;;;;;;;;;;;5074710;28;19916;-79
2022/03/25 12:35:38;;;;;;;;;;;;;;;;;;5074628;28;19916;-79
2022/03/25 12:38:22;;;;;;;;;;;;;;;;;;5056534;28;19922;-80
2022/03/25 12:40:49;;;;;;;;;;;;;;;;;;5074578;28;19947;-79
2022/03/25 12:43:15;;;;;;;;;;;;;;;;;;5074514;28;19921;-79
2022/03/25 12:45:42;;;;;;;;;;;;;;;;;;5073475;28;20285;-79
2022/03/25 12:48:10;;;;;;;;;;;;;;;;;;5074285;28;20003;-79
2022/03/25 12:50:36;;;;;;;;;;;;;;;;;;5074397;28;19917;-78
2022/03/25 12:53:03;;;;;;;;;;;;;;;;;;5074236;28;20345;-79
2022/03/25 12:55:29;;;;;;;;;;;;;;;;;;5074248;28;19928;-80
2022/03/25 12:58:02;;;;;;;;;;;;;;;;;;5074221;28;19912;-79
2022/03/25 13:00:31;;;;;;;;;;;;;;;;;;5074003;28;20335;-78
2022/03/25 13:02:57;;;;;;;;;;;;;;;;;;5074138;28;19916;-78
2022/03/25 13:05:24;;;;;;;;;;;;;;;;;;5074015;28;20273;-78
2022/03/25 13:07:52;;;;;;;;;;;;;;;;;;5074018;28;19927;-77
2022/03/25 13:10:18;;;;;;;;;;;;;;;;;;5074002;28;19917;-79
2022/03/25 13:12:45;;;;;;;;;;;;;;;;;;5074046;28;20387;-78
2022/03/25 13:15:11;;;;;;;;;;;;;;;;;;5071557;28;19924;-78
2022/03/25 13:17:39;;;;;;;;;;;;;;;;;;5053553;28;19966;-78
2022/03/25 13:20:13;;;;;;;;;;;;;;;;;;5069429;28;19928;-77
2022/03/25 13:22:52;;;;;;;;;;;;;;;;;;5073862;28;19917;-78
2022/03/25 13:25:23;;;;;;;;;;;;;;;;;;5074331;28;20011;-77
2022/03/25 13:27:48;;;;;;;;;;;;;;;;;;5074448;28;19917;-78
2022/03/25 13:30:14;;;;;;;;;;;;;;;;;;5072319;28;19917;-78
2022/03/25 13:32:39;;;;;;;;;;;;;;;;;;5073554;28;19916;-78
2022/03/25 13:35:09;;;;;;;;;;;;;;;;;;5072329;28;19916;-79
2022/03/25 13:37:35;;;;;;;;;;;;;;;;;;5073415;28;19916;-78
2022/03/25 13:40:00;;;;;;;;;;;;;;;;;;5073518;28;19920;-78
2022/03/25 13:42:36;;;;;;;;;;;;;;;;;;5073332;28;20463;-78
2022/03/25 13:45:05;;;;;;;;;;;;;;;;;;5073312;28;19923;-76
2022/03/25 13:47:31;;;;;;;;;;;;;;;;;;5068142;28;19939;-77
2022/03/25 13:50:12;;;;;;;;;;;;;;;;;;5072984;28;20015;-78
2022/03/25 13:52:37;;;;;;;;;;;;;;;;;;5073021;28;19960;-77
2022/03/25 13:55:13;;;;;;;;;;;;;;;;;;5072992;28;20399;-79
2022/03/25 13:57:38;;;;;;;;;;;;;;;;;;5073325;28;19916;-77
2022/03/25 14:00:09;;;;;;;;;;;;;;;;;;5072878;28;20398;-79
2022/03/25 14:02:34;;;;;;;;;;;;;;;;;;5073062;28;19917;-79
2022/03/25 14:05:00;;;;;;;;;;;;;;;;;;5072722;28;19917;-76
2022/03/25 14:07:27;;;;;;;;;;;;;;;;;;5072800;28;20109;-79
2022/03/25 14:09:53;;;;;;;;;;;;;;;;;;5072881;28;20560;-77
2022/03/25 14:12:28;;;;;;;;;;;;;;;;;;5072919;28;19924;-79
2022/03/25 14:14:57;;;;;;;;;;;;;;;;;;5057531;28;20396;-78
2022/03/25 14:17:32;;;;;;;;;;;;;;;;;;5051131;28;20033;-79
2022/03/25 14:20:11;;;;;;;;;;;;;;;;;;5051344;28;19960;-78
2022/03/25 14:22:37;;;;;;;;;;;;;;;;;;5052635;28;19920;-79
2022/03/25 14:25:04;;;;;;;;;;;;;;;;;;5052690;28;19924;-78
2022/03/25 14:27:29;;;;;;;;;;;;;;;;;;5052570;28;19964;-79
2022/03/25 14:29:55;;;;;;;;;;;;;;;;;;5052611;28;19966;-79
2022/03/25 14:32:21;;;;;;;;;;;;;;;;;;5052641;28;20059;-79
2022/03/25 14:34:46;;;;;;;;;;;;;;;;;;5052380;28;19967;-79
2022/03/25 14:37:13;;;;;;;;;;;;;;;;;;5055927;28;20515;-79
2022/03/25 14:39:38;;;;;;;;;;;;;;;;;;5047008;28;19920;-80
2022/03/25 14:42:04;;;;;;;;;;;;;;;;;;5054235;28;19917;-79
2022/03/25 14:44:30;;;;;;;;;;;;;;;;;;5047875;28;19970;-80
2022/03/25 14:46:56;;;;;;;;;;;;;;;;;;5052364;28;19921;-81
2022/03/25 14:49:21;;;;;;;;;;;;;;;;;;5052222;28;20010;-76
2022/03/25 14:51:47;;;;;;;;;;;;;;;;;;5052406;28;19916;-77
2022/03/25 14:54:13;;;;;;;;;;;;;;;;;;5052300;28;20035;-79
2022/03/25 14:56:39;;;;;;;;;;;;;;;;;;5063402;28;20380;-80
2022/03/25 14:59:05;;;;;;;;;;;;;;;;;;5073012;28;19920;-79
2022/03/25 15:01:30;;;;;;;;;;;;;;;;;;5072692;28;19920;-78
2022/03/25 15:03:56;;;;;;;;;;;;;;;;;;5072802;28;19923;-78
2022/03/25 15:06:21;;;;;;;;;;;;;;;;;;5073350;28;19916;-78
2022/03/25 15:08:47;;;;;;;;;;;;;;;;;;5082540;28;19920;-77
2022/03/25 15:11:13;;;;;;;;;;;;;;;;;;5069165;28;19924;-79
2022/03/25 15:13:39;;;;;;;;;;;;;;;;;;5082292;28;19917;-79
2022/03/25 15:16:06;;;;;;;;;;;;;;;;;;5077430;28;19916;-77
2022/03/25 15:18:31;;;;;;;;;;;;;;;;;;5076737;28;19956;-79
2022/03/25 15:20:57;;;;;;;;;;;;;;;;;;5068579;28;20009;-79
2022/03/25 15:23:23;;;;;;;;;;;;;;;;;;5072975;28;19998;-78
2022/03/25 15:25:48;;;;;;;;;;;;;;;;;;5038255;28;20396;-79
2022/03/25 15:28:13;;;;;;;;;;;;;;;;;;5038167;28;19920;-78
2022/03/25 15:36:07;;;;;;;;;;;;;;;;;;5060490;28;20326;-78
2022/03/25 15:38:32;;;;;;;;;;;;;;;;;;5066831;28;19924;-78
2022/03/25 15:40:58;;;;;;;;;;;;;;;;;;5075118;28;19994;-80
2022/03/25 15:43:23;;;;;;;;;;;;;;;;;;5069478;28;20419;-80
2022/03/25 15:45:49;;;;;;;;;;;;;;;;;;5072448;28;19968;-78
2022/03/25 15:48:14;;;;;;;;;;;;;;;;;;5064368;28;19924;-79
2022/03/25 15:50:39;;;;;;;;;;;;;;;;;;5055895;28;20023;-78
2022/03/25 15:53:05;;;;;;;;;;;;;;;;;;5058308;28;20016;-79
2022/03/25 15:55:34;;;;;;;;;;;;;;;;;;5059057;28;20446;-79
2022/03/25 15:58:03;;;;;;;;;;;;;;;;;;5067643;28;19921;-78
2022/03/25 16:00:30;;;;;;;;;;;;;;;;;;5063836;28;19921;-77
2022/03/25 16:02:56;;;;;;;;;;;;;;;;;;5055678;28;19920;-78
2022/03/25 16:05:22;;;;;;;;;;;;;;;;;;5055370;28;19929;-79
2022/03/25 16:07:48;;;;;;;;;;;;;;;;;;5056119;28;20027;-78
2022/03/25 16:10:14;;;;;;;;;;;;;;;;;;5056054;28;19920;-78
2022/03/25 16:12:41;;;;;;;;;;;;;;;;;;5062697;28;19923;-78
2022/03/25 16:15:06;;;;;;;;;;;;;;;;;;5061843;28;19974;-78
2022/03/25 16:17:32;;;;;;;;;;;;;;;;;;5075989;28;19928;-78
2022/03/25 16:19:59;;;;;;;;;;;;;;;;;;5056486;28;20364;-78
2022/03/25 16:22:25;;;;;;;;;;;;;;;;;;5075835;28;20417;-77
2022/03/25 16:24:51;;;;;;;;;;;;;;;;;;5060599;28;19971;-80
2022/03/25 16:27:18;;;;;;;;;;;;;;;;;;5074025;28;19944;-81
2022/03/25 16:29:43;;;;;;;;;;;;;;;;;;5057249;28;20018;-79
2022/03/25 16:32:10;;;;;;;;;;;;;;;;;;5075668;28;20043;-78
2022/03/25 16:34:35;;;;;;;;;;;;;;;;;;5053968;28;19927;-79
2022/03/25 16:37:01;;;;;;;;;;;;;;;;;;5055404;28;20277;-80
2022/03/25 16:39:27;;;;;;;;;;;;;;;;;;5055428;28;19975;-79
2022/03/25 16:41:54;;;;;;;;;;;;;;;;;;5070720;28;19924;-80
2022/03/25 16:44:20;;;;;;;;;;;;;;;;;;5061710;28;20007;-80
2022/03/25 16:46:45;;;;;;;;;;;;;;;;;;5065991;28;20011;-80
2022/03/25 16:49:11;;;;;;;;;;;;;;;;;;5064818;28;20061;-80
2022/03/25 16:51:36;;;;;;;;;;;;;;;;;;5065757;28;19921;-79